createdAt,value
2018-12-03T00:01:52.592Z,100792.44
2018-12-03T00:04:56.076Z,100795.44
2018-12-03T00:07:59.667Z,100790.99
2018-12-03T00:11:03.310Z,100783.71
2018-12-03T00:14:06.937Z,100787.76
2018-12-03T00:17:10.502Z,100790.02
2018-12-03T00:20:14.125Z,100798.41
2018-12-03T00:23:18.750Z,100787.52
2018-12-03T00:26:23.322Z,100796.19
2018-12-03T00:29:28.178Z,100802.43
2018-12-03T00:32:31.873Z,100805.66
2018-12-03T00:35:36.455Z,100804.07
2018-12-03T00:38:41.074Z,100802.92
2018-12-03T00:41:44.653Z,100805.76
2018-12-03T00:44:48.283Z,100815.88
2018-12-03T00:47:51.929Z,100814.41
2018-12-03T00:50:55.420Z,100823.50
2018-12-03T00:53:58.988Z,100823.67
2018-12-03T00:57:02.625Z,100823.68
2018-12-03T01:00:08.810Z,100828.24
2018-12-03T01:03:12.500Z,100834.66
2018-12-03T01:06:16.217Z,100835.26
2018-12-03T01:09:19.797Z,100842.26
2018-12-03T01:12:23.256Z,100848.33
2018-12-03T01:15:26.886Z,100852.04
2018-12-03T01:18:30.414Z,100850.15
2018-12-03T01:21:33.974Z,100842.06
2018-12-03T01:24:37.530Z,100847.29
2018-12-03T01:27:41.363Z,100844.23
2018-12-03T01:30:44.865Z,100853.05
2018-12-03T01:33:48.503Z,100849.10
2018-12-03T01:36:52.134Z,100840.27
2018-12-03T01:39:55.653Z,100838.24
2018-12-03T01:42:59.175Z,100833.26
2018-12-03T01:46:02.704Z,100849.37
2018-12-03T01:49:06.359Z,100838.44
2018-12-03T01:52:09.881Z,100834.87
2018-12-03T01:55:13.524Z,100829.90
2018-12-03T01:58:17.180Z,100826.73
2018-12-03T02:01:20.675Z,100826.56
2018-12-03T02:04:24.218Z,100822.91
2018-12-03T02:07:27.750Z,100816.19
2018-12-03T02:10:31.252Z,100825.80
2018-12-03T02:13:34.768Z,100830.66
2018-12-03T02:16:38.420Z,100825.51
2018-12-03T02:19:42.485Z,100824.60
2018-12-03T02:22:46.095Z,100831.59
2018-12-03T02:25:49.765Z,100830.10
2018-12-03T02:28:53.210Z,100834.64
2018-12-03T02:31:56.859Z,100830.66
2018-12-03T02:35:00.602Z,100831.82
2018-12-03T02:38:04.251Z,100824.51
2018-12-03T02:41:07.780Z,100830.38
2018-12-03T02:44:11.370Z,100829.02
2018-12-03T02:47:15.009Z,100832.57
2018-12-03T02:50:18.595Z,100835.37
2018-12-03T02:53:22.190Z,100828.93
2018-12-03T02:56:25.630Z,100836.58
2018-12-03T02:59:29.277Z,100837.45
2018-12-03T03:02:32.816Z,100837.30
2018-12-03T03:05:36.408Z,100827.83
2018-12-03T03:08:40.038Z,100829.26
2018-12-03T03:11:43.774Z,100822.05
2018-12-03T03:14:47.539Z,100823.17
2018-12-03T03:17:51.079Z,100823.58
2018-12-03T03:20:54.669Z,100826.79
2018-12-03T03:23:58.208Z,100818.32
2018-12-03T03:27:01.752Z,100813.96
2018-12-03T03:30:08.092Z,100824.70
2018-12-03T03:33:11.642Z,100816.55
2018-12-03T03:36:15.243Z,100827.06
2018-12-03T03:39:18.759Z,100826.10
2018-12-03T03:42:22.279Z,100832.05
2018-12-03T03:45:26.500Z,100824.85
2018-12-03T03:48:30.079Z,100832.85
2018-12-03T03:51:33.546Z,100822.57
2018-12-03T03:54:37.045Z,100826.38
2018-12-03T03:57:40.640Z,100832.39
2018-12-03T04:00:44.286Z,100822.90
2018-12-03T04:03:47.822Z,100824.62
2018-12-03T04:06:51.385Z,100819.90
2018-12-03T04:09:54.934Z,100813.14
2018-12-03T04:12:58.503Z,100815.41
2018-12-03T04:16:01.916Z,100812.36
2018-12-03T04:19:05.858Z,100801.07
2018-12-03T04:22:09.402Z,100802.65
2018-12-03T04:25:13.488Z,100805.21
2018-12-03T04:28:17.045Z,100797.11
2018-12-03T04:31:20.422Z,100795.23
2018-12-03T04:34:24.030Z,100792.36
2018-12-03T04:37:27.528Z,100792.79
2018-12-03T04:40:31.043Z,100812.19
2018-12-03T04:43:34.545Z,100813.83
2018-12-03T04:46:38.155Z,100825.39
2018-12-03T04:49:41.690Z,100824.46
2018-12-03T04:52:45.235Z,100831.51
2018-12-03T04:55:48.759Z,100825.24
2018-12-03T04:58:52.383Z,100826.47
2018-12-03T05:01:56.024Z,100825.71
2018-12-03T05:04:59.585Z,100825.88
2018-12-03T05:08:03.069Z,100827.00
2018-12-03T05:11:06.987Z,100835.49
2018-12-03T05:14:11.521Z,100832.84
2018-12-03T05:17:15.217Z,100850.76
2018-12-03T05:20:20.813Z,100847.70
2018-12-03T05:23:24.369Z,100851.77
2018-12-03T05:26:27.878Z,100839.34
2018-12-03T05:29:31.394Z,100843.48
2018-12-03T05:32:35.031Z,100863.48
2018-12-03T05:35:38.777Z,100859.14
2018-12-03T05:38:42.212Z,100866.79
2018-12-03T05:41:45.690Z,100863.35
2018-12-03T05:44:49.320Z,100873.95
2018-12-03T05:47:52.871Z,100870.41
2018-12-03T05:50:56.425Z,100875.80
2018-12-03T05:54:00.025Z,100873.76
2018-12-03T05:57:03.590Z,100884.67
2018-12-03T06:00:12.568Z,100875.43
2018-12-03T06:03:15.961Z,100883.64
2018-12-03T06:06:20.477Z,100876.34
2018-12-03T06:09:24.016Z,100877.84
2018-12-03T06:12:27.486Z,100874.40
2018-12-03T06:15:30.896Z,100874.14
2018-12-03T06:18:34.558Z,100890.78
2018-12-03T06:21:38.154Z,100876.46
2018-12-03T06:24:41.855Z,100874.42
2018-12-03T06:27:45.270Z,100868.57
2018-12-03T06:30:48.758Z,100866.54
2018-12-03T06:33:52.216Z,100865.93
2018-12-03T06:36:55.933Z,100856.39
2018-12-03T06:39:59.630Z,100864.75
2018-12-03T06:43:03.398Z,100859.70
2018-12-03T06:46:07.059Z,100859.36
2018-12-03T06:49:10.794Z,100855.64
2018-12-03T06:52:14.347Z,100863.99
2018-12-03T06:55:18.031Z,100862.06
2018-12-03T06:58:21.695Z,100856.55
2018-12-03T07:01:26.269Z,100868.29
2018-12-03T07:04:29.862Z,100864.24
2018-12-03T07:07:33.526Z,100870.84
2018-12-03T07:10:37.071Z,100877.51
2018-12-03T07:13:40.736Z,100883.16
2018-12-03T07:16:44.283Z,100890.18
2018-12-03T07:19:47.835Z,100886.44
2018-12-03T07:22:51.486Z,100889.54
2018-12-03T07:25:55.065Z,100879.21
2018-12-03T07:28:58.526Z,100881.84
2018-12-03T07:32:02.332Z,100884.67
2018-12-03T07:35:05.947Z,100888.37
2018-12-03T07:38:09.513Z,100889.21
2018-12-03T07:41:13.139Z,100897.75
2018-12-03T07:44:16.734Z,100904.26
2018-12-03T07:47:20.343Z,100908.01
2018-12-03T07:50:24.738Z,100911.75
2018-12-03T07:53:28.278Z,100921.45
2018-12-03T07:56:31.980Z,100918.13
2018-12-03T07:59:35.598Z,100914.86
2018-12-03T08:02:39.305Z,100910.63
2018-12-03T08:05:42.910Z,100899.32
2018-12-03T08:08:46.535Z,100905.37
2018-12-03T08:11:51.248Z,100902.95
2018-12-03T08:14:54.857Z,100904.75
2018-12-03T08:18:03.141Z,100916.33
2018-12-03T08:21:08.399Z,100916.84
2018-12-03T08:24:13.622Z,100910.02
2018-12-03T08:27:17.152Z,100907.40
2018-12-03T08:30:21.129Z,100913.02
2018-12-03T08:33:24.871Z,100911.88
2018-12-03T08:36:28.470Z,100913.87
2018-12-03T08:39:32.296Z,100915.93
2018-12-03T08:42:36.038Z,100919.63
2018-12-03T08:45:39.604Z,100913.15
2018-12-03T08:48:43.415Z,100911.59
2018-12-03T08:51:48.037Z,100902.98
2018-12-03T08:54:51.469Z,100890.22
2018-12-03T08:57:55.023Z,100895.37
2018-12-03T09:00:58.656Z,100906.79
2018-12-03T09:04:08.634Z,100905.69
2018-12-03T09:07:12.891Z,100902.27
2018-12-03T09:10:16.908Z,100915.33
2018-12-03T09:13:21.828Z,100922.11
2018-12-03T09:16:25.714Z,100931.58
2018-12-03T09:19:29.322Z,100937.15
2018-12-03T09:22:33.218Z,100934.94
2018-12-03T09:25:36.796Z,100937.18
2018-12-03T09:28:40.378Z,100932.48
2018-12-03T09:31:43.986Z,100947.87
2018-12-03T09:34:47.431Z,100968.98
2018-12-03T09:37:51.290Z,100973.49
2018-12-03T09:41:00.772Z,100965.51
2018-12-03T09:44:04.411Z,100966.53
2018-12-03T09:47:08.035Z,100964.86
2018-12-03T09:50:17.913Z,100951.85
2018-12-03T09:53:21.499Z,100948.12
2018-12-03T09:56:30.012Z,100952.56
2018-12-03T09:59:33.636Z,100946.89
2018-12-03T10:02:37.425Z,100942.92
2018-12-03T10:05:45.559Z,100943.31
2018-12-03T10:08:49.115Z,100925.84
2018-12-03T10:11:57.632Z,100907.01
2018-12-03T10:15:01.282Z,100916.76
2018-12-03T10:18:05.181Z,100916.47
2018-12-03T10:21:08.654Z,100919.93
2018-12-03T10:24:13.060Z,100917.52
2018-12-03T10:27:16.548Z,100918.83
2018-12-03T10:30:21.214Z,100919.21
2018-12-03T10:33:28.253Z,100911.12
2018-12-03T10:36:31.919Z,100905.14
2018-12-03T10:39:36.796Z,100887.49
2018-12-03T10:42:40.496Z,100880.37
2018-12-03T10:45:43.975Z,100880.79
2018-12-03T10:48:47.490Z,100873.67
2018-12-03T10:51:51.006Z,100876.85
2018-12-03T10:54:54.732Z,100861.01
2018-12-03T10:57:58.270Z,100854.61
2018-12-03T11:01:11.415Z,100842.41
2018-12-03T11:04:20.388Z,100842.58
2018-12-03T11:07:23.986Z,100869.25
2018-12-03T11:10:43.287Z,100873.04
2018-12-03T11:13:46.858Z,100854.42
2018-12-03T11:16:50.466Z,100852.11
2018-12-03T11:19:54.121Z,100852.99
2018-12-03T11:22:57.884Z,100851.94
2018-12-03T11:26:01.406Z,100850.61
2018-12-03T11:29:06.091Z,100852.91
2018-12-03T11:32:09.705Z,100859.07
2018-12-03T11:35:13.676Z,100859.05
2018-12-03T11:38:40.761Z,100848.17
2018-12-03T11:41:44.514Z,100852.91
2018-12-03T11:44:48.011Z,100848.68
2018-12-03T11:47:51.617Z,100846.13
2018-12-03T11:50:55.145Z,100837.37
2018-12-03T11:53:58.735Z,100835.51
2018-12-03T11:57:02.262Z,100837.52
2018-12-03T12:00:09.927Z,100847.76
2018-12-03T12:03:13.337Z,100840.72
2018-12-03T12:06:16.921Z,100839.28
2018-12-03T12:09:22.840Z,100831.37
2018-12-03T12:12:26.390Z,100821.25
2018-12-03T12:15:31.494Z,100807.99
2018-12-03T12:18:35.057Z,100798.67
2018-12-03T12:21:38.664Z,100789.99
2018-12-03T12:24:43.408Z,100782.00
2018-12-03T12:27:49.461Z,100776.32
2018-12-03T12:30:54.156Z,100768.96
2018-12-03T12:33:57.895Z,100772.60
2018-12-03T12:37:01.660Z,100779.36
2018-12-03T12:40:08.123Z,100769.59
2018-12-03T12:43:11.626Z,100770.49
2018-12-03T12:46:19.172Z,100761.56
2018-12-03T12:49:22.799Z,100752.54
2018-12-03T12:52:26.743Z,100754.61
2018-12-03T12:55:30.350Z,100756.85
2018-12-03T12:58:34.182Z,100757.95
2018-12-03T13:01:37.817Z,100749.80
2018-12-03T13:04:41.516Z,100746.42
2018-12-03T13:07:45.534Z,100747.57
2018-12-03T13:10:49.373Z,100732.23
2018-12-03T13:13:53.203Z,100720.10
2018-12-03T13:16:56.761Z,100699.29
2018-12-03T13:20:00.414Z,100718.54
2018-12-03T13:23:04.541Z,100717.63
2018-12-03T13:26:08.784Z,100719.91
2018-12-03T13:29:12.557Z,100705.33
2018-12-03T13:32:16.097Z,100701.16
2018-12-03T13:35:19.524Z,100701.42
2018-12-03T13:38:23.145Z,100710.95
2018-12-03T13:41:26.655Z,100718.74
2018-12-03T13:44:30.281Z,100719.82
2018-12-03T13:47:33.716Z,100721.78
2018-12-03T13:50:37.132Z,100715.75
2018-12-03T13:53:40.788Z,100709.18
2018-12-03T13:56:44.324Z,100720.79
2018-12-03T13:59:47.889Z,100726.90
2018-12-03T14:02:55.632Z,100751.59
2018-12-03T14:06:14.952Z,100771.67
2018-12-03T14:09:36.514Z,100773.50
2018-12-03T14:12:54.850Z,100780.53
2018-12-03T14:16:29.531Z,100767.32
2018-12-03T14:19:33.712Z,100754.79
2018-12-03T14:22:45.553Z,100758.84
2018-12-03T14:25:50.095Z,100760.25
2018-12-03T14:28:53.707Z,100752.99
2018-12-03T14:31:57.209Z,100735.28
2018-12-03T14:35:00.770Z,100742.11
2018-12-03T14:38:04.190Z,100744.69
2018-12-03T14:41:07.700Z,100745.52
2018-12-03T14:44:11.316Z,100733.46
2018-12-03T14:47:15.756Z,100725.44
2018-12-03T14:50:19.225Z,100723.44
2018-12-03T14:53:22.749Z,100724.34
2018-12-03T14:56:26.360Z,100714.66
2018-12-03T14:59:30.507Z,100717.33
2018-12-03T15:02:33.942Z,100705.88
2018-12-03T15:05:37.376Z,100699.36
2018-12-03T15:08:40.822Z,100694.01
2018-12-03T15:11:44.222Z,100697.04
2018-12-03T15:14:47.767Z,100696.09
2018-12-03T15:17:52.294Z,100697.39
2018-12-03T15:20:56.701Z,100695.65
2018-12-03T15:24:00.235Z,100703.12
2018-12-03T15:27:03.659Z,100707.57
2018-12-03T15:30:09.006Z,100700.32
2018-12-03T15:33:12.590Z,100698.12
2018-12-03T15:36:16.309Z,100685.53
2018-12-03T15:39:20.021Z,100689.13
2018-12-03T15:42:23.715Z,100681.59
2018-12-03T15:45:27.275Z,100668.93
2018-12-03T15:48:30.932Z,100656.06
2018-12-03T15:51:34.415Z,100633.91
2018-12-03T15:54:37.935Z,100628.24
2018-12-03T15:57:41.492Z,100622.68
2018-12-03T16:00:45.173Z,100625.44
2018-12-03T16:03:48.801Z,100624.76
2018-12-03T16:06:53.593Z,100619.73
2018-12-03T16:09:57.094Z,100622.33
2018-12-03T16:13:00.717Z,100620.32
2018-12-03T16:16:04.328Z,100621.71
2018-12-03T16:19:07.965Z,100616.28
2018-12-03T16:22:11.548Z,100611.55
2018-12-03T16:25:15.286Z,100609.91
2018-12-03T16:28:18.830Z,100601.77
2018-12-03T16:31:22.348Z,100604.93
2018-12-03T16:34:26.027Z,100605.06
2018-12-03T16:37:29.706Z,100603.83
2018-12-03T16:40:33.202Z,100598.15
2018-12-03T16:43:36.810Z,100606.75
2018-12-03T16:46:40.595Z,100599.82
2018-12-03T16:49:44.176Z,100591.85
2018-12-03T16:52:47.613Z,100593.42
2018-12-03T16:55:51.115Z,100586.73
2018-12-03T16:58:54.720Z,100585.62
2018-12-03T17:01:58.366Z,100573.55
2018-12-03T17:05:02.324Z,100579.44
2018-12-03T17:08:05.900Z,100576.42
2018-12-03T17:11:10.029Z,100566.76
2018-12-03T17:14:13.643Z,100564.61
2018-12-03T17:17:17.361Z,100564.85
2018-12-03T17:20:37.443Z,100562.76
2018-12-03T17:23:55.897Z,100564.63
2018-12-03T17:26:59.483Z,100558.84
2018-12-03T17:30:03.251Z,100548.24
2018-12-03T17:33:06.902Z,100551.89
2018-12-03T17:36:10.479Z,100555.16
2018-12-03T17:39:14.061Z,100565.64
2018-12-03T17:42:19.167Z,100570.48
2018-12-03T17:45:22.779Z,100565.09
2018-12-03T17:48:27.489Z,100572.37
2018-12-03T17:51:31.022Z,100572.13
2018-12-03T17:54:34.588Z,100573.81
2018-12-03T17:57:38.196Z,100573.99
2018-12-03T18:00:42.458Z,100584.43
2018-12-03T18:03:45.917Z,100591.58
2018-12-03T18:06:49.816Z,100591.14
2018-12-03T18:09:53.925Z,100588.86
2018-12-03T18:12:57.713Z,100581.82
2018-12-03T18:16:01.153Z,100583.34
2018-12-03T18:19:04.944Z,100588.93
2018-12-03T18:22:08.796Z,100596.63
2018-12-03T18:25:12.684Z,100597.20
2018-12-03T18:28:17.412Z,100591.82
2018-12-03T18:31:21.032Z,100601.30
2018-12-03T18:34:24.546Z,100601.87
2018-12-03T18:37:28.038Z,100614.04
2018-12-03T18:40:31.472Z,100631.53
2018-12-03T18:43:34.949Z,100647.16
2018-12-03T18:46:38.427Z,100654.83
2018-12-03T18:49:45.648Z,100653.69
2018-12-03T18:52:49.125Z,100655.37
2018-12-03T18:55:53.027Z,100661.25
2018-12-03T18:59:01.130Z,100674.46
2018-12-03T19:02:05.080Z,100669.94
2018-12-03T19:05:08.682Z,100677.04
2018-12-03T19:08:12.256Z,100684.91
2018-12-03T19:11:15.920Z,100699.56
2018-12-03T19:14:19.486Z,100700.58
2018-12-03T19:17:23.057Z,100721.60
2018-12-03T19:20:26.598Z,100724.76
2018-12-03T19:23:30.369Z,100734.51
2018-12-03T19:26:33.771Z,100725.68
2018-12-03T19:29:38.914Z,100735.42
2018-12-03T19:32:40.915Z,100727.62
2018-12-03T19:35:46.503Z,100747.58
2018-12-03T19:38:50.032Z,100779.92
2018-12-03T19:41:53.751Z,100762.69
2018-12-03T19:44:57.462Z,100781.00
2018-12-03T19:48:01.377Z,100797.83
2018-12-03T19:51:05.046Z,100803.80
2018-12-03T19:54:08.624Z,100810.19
2018-12-03T19:57:12.563Z,100807.84
2018-12-03T20:00:16.147Z,100829.12
2018-12-03T20:03:19.744Z,100846.46
2018-12-03T20:06:24.289Z,100847.72
2018-12-03T20:09:27.887Z,100847.31
2018-12-03T20:12:32.559Z,100854.31
2018-12-03T20:15:36.013Z,100867.41
2018-12-03T20:18:40.761Z,100863.29
2018-12-03T20:21:45.778Z,100861.37
2018-12-03T20:24:49.408Z,100855.85
2018-12-03T20:27:57.903Z,100849.83
2018-12-03T20:31:16.261Z,100859.98
2018-12-03T20:34:28.075Z,100867.85
2018-12-03T20:37:43.538Z,100875.05
2018-12-03T20:40:58.611Z,100881.45
2018-12-03T20:44:20.619Z,100899.90
2018-12-03T20:47:28.058Z,100901.61
2018-12-03T20:51:13.855Z,100916.87
2018-12-03T20:54:17.423Z,100927.26
2018-12-03T20:57:21.070Z,100942.01
2018-12-03T21:00:24.738Z,100940.63
2018-12-03T21:03:28.288Z,100944.17
2018-12-03T21:06:31.934Z,100953.41
2018-12-03T21:09:35.571Z,100959.51
2018-12-03T21:12:39.172Z,100971.21
2018-12-03T21:15:42.775Z,100978.59
2018-12-03T21:18:46.470Z,100983.71
2018-12-03T21:21:50.735Z,100994.18
2018-12-03T21:24:54.530Z,101000.88
2018-12-03T21:27:58.085Z,101001.97
2018-12-03T21:31:01.638Z,101009.93
2018-12-03T21:34:05.268Z,101017.99
2018-12-03T21:37:08.814Z,101025.24
2018-12-03T21:40:12.491Z,101044.86
2018-12-03T21:43:16.511Z,101047.38
2018-12-03T21:46:21.012Z,101052.92
2018-12-03T21:49:24.496Z,101066.77
2018-12-03T21:52:28.309Z,101073.14
2018-12-03T21:55:31.867Z,101088.82
2018-12-03T21:58:35.417Z,101087.53
2018-12-03T22:01:38.868Z,101087.88
2018-12-03T22:04:42.506Z,101097.83
2018-12-03T22:07:46.049Z,101098.97
2018-12-03T22:10:49.555Z,101102.20
2018-12-03T22:13:53.069Z,101110.37
2018-12-03T22:16:56.543Z,101118.75
2018-12-03T22:20:00.052Z,101119.57
2018-12-03T22:23:03.613Z,101114.18
2018-12-03T22:26:07.340Z,101122.85
2018-12-03T22:29:11.073Z,101117.73
2018-12-03T22:32:14.623Z,101118.21
2018-12-03T22:35:18.095Z,101124.01
2018-12-03T22:38:21.647Z,101127.93
2018-12-03T22:41:25.334Z,101116.48
2018-12-03T22:44:28.760Z,101127.10
2018-12-03T22:47:32.312Z,101139.19
2018-12-03T22:50:35.975Z,101146.17
2018-12-03T22:53:39.549Z,101145.53
2018-12-03T22:56:42.955Z,101146.49
2018-12-03T22:59:46.475Z,101151.17
2018-12-03T23:02:50.026Z,101150.84
2018-12-03T23:05:53.593Z,101166.63
2018-12-03T23:08:57.176Z,101158.46
2018-12-03T23:12:00.782Z,101154.98
2018-12-03T23:15:04.540Z,101163.50
2018-12-03T23:18:08.013Z,101169.01
2018-12-03T23:21:11.513Z,101176.34
2018-12-03T23:24:15.086Z,101175.95
2018-12-03T23:27:18.488Z,101185.09
2018-12-03T23:30:22.031Z,101191.09
2018-12-03T23:33:25.607Z,101196.52
2018-12-03T23:36:28.975Z,101200.39
2018-12-03T23:39:32.379Z,101203.81
2018-12-03T23:42:35.852Z,101208.31
2018-12-03T23:45:39.395Z,101210.49
2018-12-03T23:48:42.960Z,101207.66
2018-12-03T23:51:46.574Z,101205.89
2018-12-03T23:54:50.160Z,101203.21
2018-12-03T23:57:53.764Z,101208.05
